sensor_id;sensor_type;location;lat;lon;timestamp;P1;durP1;ratioP1;P2;durP2;ratioP2
48621;SDS011;34421;48.944;9.460;2022-08-18T00:02:21;3.80;;;2.45;;
48621;SDS011;34421;48.944;9.460;2022-08-18T00:04:49;3.55;;;2.15;;
48621;SDS011;34421;48.944;9.460;2022-08-18T00:07:20;5.20;;;2.67;;
48621;SDS011;34421;48.944;9.460;2022-08-18T00:09:56;3.78;;;2.70;;
48621;SDS011;34421;48.944;9.460;2022-08-18T00:12:26;3.83;;;2.50;;
48621;SDS011;34421;48.944;9.460;2022-08-18T00:14:57;3.97;;;2.50;;
48621;SDS011;34421;48.944;9.460;2022-08-18T00:17:27;4.07;;;2.75;;
48621;SDS011;34421;48.944;9.460;2022-08-18T00:19:53;5.05;;;3.20;;
48621;SDS011;34421;48.944;9.460;2022-08-18T00:22:19;4.40;;;2.45;;
48621;SDS011;34421;48.944;9.460;2022-08-18T00:24:47;4.80;;;2.50;;
48621;SDS011;34421;48.944;9.460;2022-08-18T00:27:15;3.85;;;2.40;;
48621;SDS011;34421;48.944;9.460;2022-08-18T00:29:45;4.57;;;2.67;;
48621;SDS011;34421;48.944;9.460;2022-08-18T00:32:15;4.70;;;2.33;;
48621;SDS011;34421;48.944;9.460;2022-08-18T00:34:43;3.65;;;2.40;;
48621;SDS011;34421;48.944;9.460;2022-08-18T00:37:08;4.30;;;2.80;;
48621;SDS011;34421;48.944;9.460;2022-08-18T00:39:34;5.25;;;2.88;;
48621;SDS011;34421;48.944;9.460;2022-08-18T00:42:10;3.38;;;2.38;;
48621;SDS011;34421;48.944;9.460;2022-08-18T00:44:37;4.43;;;2.72;;
48621;SDS011;34421;48.944;9.460;2022-08-18T00:47:03;4.68;;;2.80;;
48621;SDS011;34421;48.944;9.460;2022-08-18T00:49:28;3.40;;;2.17;;
48621;SDS011;34421;48.944;9.460;2022-08-18T00:51:53;4.20;;;2.85;;
48621;SDS011;34421;48.944;9.460;2022-08-18T00:54:24;4.00;;;2.67;;
48621;SDS011;34421;48.944;9.460;2022-08-18T00:56:56;4.82;;;2.38;;
48621;SDS011;34421;48.944;9.460;2022-08-18T01:02:09;4.38;;;2.55;;
48621;SDS011;34421;48.944;9.460;2022-08-18T01:04:41;5.07;;;2.55;;
48621;SDS011;34421;48.944;9.460;2022-08-18T01:07:37;4.32;;;2.30;;
48621;SDS011;34421;48.944;9.460;2022-08-18T01:10:09;5.70;;;2.50;;
48621;SDS011;34421;48.944;9.460;2022-08-18T01:12:38;3.78;;;2.70;;
48621;SDS011;34421;48.944;9.460;2022-08-18T01:15:03;4.80;;;2.60;;
48621;SDS011;34421;48.944;9.460;2022-08-18T01:17:29;4.07;;;2.60;;
48621;SDS011;34421;48.944;9.460;2022-08-18T01:20:14;3.70;;;2.65;;
48621;SDS011;34421;48.944;9.460;2022-08-18T01:23:08;3.88;;;2.40;;
48621;SDS011;34421;48.944;9.460;2022-08-18T01:25:37;4.13;;;2.67;;
48621;SDS011;34421;48.944;9.460;2022-08-18T01:28:21;4.40;;;2.80;;
48621;SDS011;34421;48.944;9.460;2022-08-18T01:30:48;3.83;;;2.42;;
48621;SDS011;34421;48.944;9.460;2022-08-18T01:33:16;3.75;;;2.47;;
48621;SDS011;34421;48.944;9.460;2022-08-18T01:35:42;3.85;;;2.53;;
48621;SDS011;34421;48.944;9.460;2022-08-18T01:38:16;4.18;;;2.60;;
48621;SDS011;34421;48.944;9.460;2022-08-18T01:40:44;4.57;;;2.40;;
48621;SDS011;34421;48.944;9.460;2022-08-18T01:43:10;3.30;;;2.55;;
48621;SDS011;34421;48.944;9.460;2022-08-18T01:45:36;4.53;;;2.67;;
48621;SDS011;34421;48.944;9.460;2022-08-18T01:48:01;4.57;;;2.92;;
48621;SDS011;34421;48.944;9.460;2022-08-18T01:50:28;3.72;;;2.85;;
48621;SDS011;34421;48.944;9.460;2022-08-18T01:52:54;4.13;;;2.95;;
48621;SDS011;34421;48.944;9.460;2022-08-18T01:55:19;4.32;;;2.85;;
48621;SDS011;34421;48.944;9.460;2022-08-18T01:57:45;4.70;;;3.33;;
48621;SDS011;34421;48.944;9.460;2022-08-18T02:00:11;4.03;;;2.80;;
48621;SDS011;34421;48.944;9.460;2022-08-18T02:02:39;5.20;;;3.17;;
48621;SDS011;34421;48.944;9.460;2022-08-18T02:05:08;4.63;;;2.92;;
48621;SDS011;34421;48.944;9.460;2022-08-18T02:07:37;4.70;;;3.13;;
48621;SDS011;34421;48.944;9.460;2022-08-18T02:10:07;5.05;;;3.42;;
48621;SDS011;34421;48.944;9.460;2022-08-18T02:12:34;5.15;;;3.45;;
48621;SDS011;34421;48.944;9.460;2022-08-18T02:15:00;4.97;;;3.35;;
48621;SDS011;34421;48.944;9.460;2022-08-18T02:17:25;6.15;;;3.38;;
48621;SDS011;34421;48.944;9.460;2022-08-18T02:19:51;4.47;;;3.28;;
48621;SDS011;34421;48.944;9.460;2022-08-18T02:22:17;4.75;;;3.42;;
48621;SDS011;34421;48.944;9.460;2022-08-18T02:24:45;5.22;;;3.10;;
48621;SDS011;34421;48.944;9.460;2022-08-18T02:27:12;5.40;;;2.97;;
48621;SDS011;34421;48.944;9.460;2022-08-18T02:29:38;5.43;;;2.65;;
48621;SDS011;34421;48.944;9.460;2022-08-18T02:32:04;4.68;;;3.00;;
48621;SDS011;34421;48.944;9.460;2022-08-18T02:34:30;4.70;;;3.05;;
48621;SDS011;34421;48.944;9.460;2022-08-18T02:36:55;5.00;;;3.03;;
48621;SDS011;34421;48.944;9.460;2022-08-18T02:39:20;4.50;;;2.60;;
48621;SDS011;34421;48.944;9.460;2022-08-18T02:41:46;5.22;;;2.35;;
48621;SDS011;34421;48.944;9.460;2022-08-18T02:44:11;4.57;;;2.60;;
48621;SDS011;34421;48.944;9.460;2022-08-18T02:46:37;4.75;;;3.08;;
48621;SDS011;34421;48.944;9.460;2022-08-18T02:49:03;3.88;;;2.67;;
48621;SDS011;34421;48.944;9.460;2022-08-18T02:51:29;4.43;;;2.90;;
48621;SDS011;34421;48.944;9.460;2022-08-18T02:53:55;4.10;;;2.80;;
48621;SDS011;34421;48.944;9.460;2022-08-18T02:56:24;5.30;;;3.20;;
48621;SDS011;34421;48.944;9.460;2022-08-18T03:01:26;4.20;;;2.90;;
48621;SDS011;34421;48.944;9.460;2022-08-18T03:03:53;4.53;;;3.15;;
48621;SDS011;34421;48.944;9.460;2022-08-18T03:06:20;4.93;;;2.70;;
48621;SDS011;34421;48.944;9.460;2022-08-18T03:08:47;4.85;;;2.90;;
48621;SDS011;34421;48.944;9.460;2022-08-18T03:11:21;4.72;;;2.97;;
48621;SDS011;34421;48.944;9.460;2022-08-18T03:16:14;4.27;;;2.60;;
48621;SDS011;34421;48.944;9.460;2022-08-18T03:18:40;4.43;;;3.08;;
48621;SDS011;34421;48.944;9.460;2022-08-18T03:21:10;4.63;;;3.30;;
48621;SDS011;34421;48.944;9.460;2022-08-18T03:23:38;4.22;;;2.90;;
48621;SDS011;34421;48.944;9.460;2022-08-18T03:26:04;4.57;;;3.22;;
48621;SDS011;34421;48.944;9.460;2022-08-18T03:28:35;4.60;;;3.15;;
48621;SDS011;34421;48.944;9.460;2022-08-18T03:31:01;5.35;;;3.38;;
48621;SDS011;34421;48.944;9.460;2022-08-18T03:33:26;4.85;;;3.58;;
48621;SDS011;34421;48.944;9.460;2022-08-18T03:35:51;6.20;;;4.00;;
48621;SDS011;34421;48.944;9.460;2022-08-18T03:38:17;6.55;;;3.60;;
48621;SDS011;34421;48.944;9.460;2022-08-18T03:40:42;4.75;;;3.58;;
48621;SDS011;34421;48.944;9.460;2022-08-18T03:43:14;5.53;;;3.50;;
48621;SDS011;34421;48.944;9.460;2022-08-18T03:45:39;6.43;;;3.92;;
48621;SDS011;34421;48.944;9.460;2022-08-18T03:48:05;4.90;;;3.40;;
48621;SDS011;34421;48.944;9.460;2022-08-18T03:50:31;4.43;;;3.15;;
48621;SDS011;34421;48.944;9.460;2022-08-18T03:52:56;5.38;;;3.65;;
48621;SDS011;34421;48.944;9.460;2022-08-18T03:55:23;4.80;;;3.50;;
48621;SDS011;34421;48.944;9.460;2022-08-18T03:57:52;4.50;;;3.40;;
48621;SDS011;34421;48.944;9.460;2022-08-18T04:00:19;4.85;;;3.38;;
48621;SDS011;34421;48.944;9.460;2022-08-18T04:02:46;5.85;;;3.63;;
48621;SDS011;34421;48.944;9.460;2022-08-18T04:05:12;5.20;;;3.50;;
48621;SDS011;34421;48.944;9.460;2022-08-18T04:07:38;6.38;;;3.95;;
48621;SDS011;34421;48.944;9.460;2022-08-18T04:10:04;5.93;;;3.72;;
48621;SDS011;34421;48.944;9.460;2022-08-18T04:12:29;5.78;;;4.05;;
48621;SDS011;34421;48.944;9.460;2022-08-18T04:14:55;5.60;;;4.20;;
48621;SDS011;34421;48.944;9.460;2022-08-18T04:17:20;5.25;;;3.83;;
48621;SDS011;34421;48.944;9.460;2022-08-18T04:19:50;5.10;;;3.40;;
48621;SDS011;34421;48.944;9.460;2022-08-18T04:22:16;4.47;;;2.92;;
48621;SDS011;34421;48.944;9.460;2022-08-18T04:24:42;5.47;;;3.10;;
48621;SDS011;34421;48.944;9.460;2022-08-18T04:27:08;5.13;;;3.25;;
48621;SDS011;34421;48.944;9.460;2022-08-18T04:29:33;5.70;;;3.60;;
48621;SDS011;34421;48.944;9.460;2022-08-18T04:31:59;4.90;;;3.38;;
48621;SDS011;34421;48.944;9.460;2022-08-18T04:34:27;5.93;;;3.88;;
48621;SDS011;34421;48.944;9.460;2022-08-18T04:36:53;5.15;;;3.40;;
48621;SDS011;34421;48.944;9.460;2022-08-18T04:39:18;6.30;;;3.97;;
48621;SDS011;34421;48.944;9.460;2022-08-18T04:41:44;4.97;;;3.17;;
48621;SDS011;34421;48.944;9.460;2022-08-18T04:44:10;4.75;;;3.45;;
48621;SDS011;34421;48.944;9.460;2022-08-18T04:46:38;5.72;;;3.80;;
48621;SDS011;34421;48.944;9.460;2022-08-18T04:49:05;5.47;;;3.75;;
48621;SDS011;34421;48.944;9.460;2022-08-18T04:51:30;5.10;;;3.50;;
48621;SDS011;34421;48.944;9.460;2022-08-18T04:53:56;5.97;;;3.65;;
48621;SDS011;34421;48.944;9.460;2022-08-18T04:56:33;6.20;;;3.83;;
48621;SDS011;34421;48.944;9.460;2022-08-18T05:01:31;5.18;;;3.85;;
48621;SDS011;34421;48.944;9.460;2022-08-18T05:03:59;5.57;;;3.60;;
48621;SDS011;34421;48.944;9.460;2022-08-18T05:06:26;5.95;;;3.97;;
48621;SDS011;34421;48.944;9.460;2022-08-18T05:08:52;5.43;;;3.72;;
48621;SDS011;34421;48.944;9.460;2022-08-18T05:11:20;5.63;;;4.03;;
48621;SDS011;34421;48.944;9.460;2022-08-18T05:13:47;5.47;;;3.72;;
48621;SDS011;34421;48.944;9.460;2022-08-18T05:16:13;4.80;;;3.42;;
48621;SDS011;34421;48.944;9.460;2022-08-18T05:18:39;5.95;;;3.65;;
48621;SDS011;34421;48.944;9.460;2022-08-18T05:21:05;5.38;;;3.75;;
48621;SDS011;34421;48.944;9.460;2022-08-18T05:23:32;5.80;;;4.00;;
48621;SDS011;34421;48.944;9.460;2022-08-18T05:25:58;6.22;;;4.28;;
48621;SDS011;34421;48.944;9.460;2022-08-18T05:28:26;6.60;;;4.43;;
48621;SDS011;34421;48.944;9.460;2022-08-18T05:30:51;6.90;;;4.10;;
48621;SDS011;34421;48.944;9.460;2022-08-18T05:33:18;5.65;;;3.97;;
48621;SDS011;34421;48.944;9.460;2022-08-18T05:35:44;5.65;;;3.85;;
48621;SDS011;34421;48.944;9.460;2022-08-18T05:41:24;5.95;;;4.35;;
48621;SDS011;34421;48.944;9.460;2022-08-18T05:43:54;6.78;;;4.60;;
48621;SDS011;34421;48.944;9.460;2022-08-18T05:46:23;5.90;;;3.90;;
48621;SDS011;34421;48.944;9.460;2022-08-18T05:48:58;5.90;;;4.07;;
48621;SDS011;34421;48.944;9.460;2022-08-18T05:51:26;8.73;;;4.95;;
48621;SDS011;34421;48.944;9.460;2022-08-18T05:53:57;7.18;;;5.00;;
48621;SDS011;34421;48.944;9.460;2022-08-18T05:56:42;7.18;;;5.07;;
48621;SDS011;34421;48.944;9.460;2022-08-18T05:59:15;7.38;;;5.32;;
48621;SDS011;34421;48.944;9.460;2022-08-18T06:01:46;7.30;;;5.22;;
48621;SDS011;34421;48.944;9.460;2022-08-18T06:07:21;6.47;;;4.78;;
48621;SDS011;34421;48.944;9.460;2022-08-18T06:09:55;6.28;;;4.72;;
48621;SDS011;34421;48.944;9.460;2022-08-18T06:17:57;6.57;;;4.20;;
48621;SDS011;34421;48.944;9.460;2022-08-18T06:20:41;7.60;;;5.43;;
48621;SDS011;34421;48.944;9.460;2022-08-18T06:31:48;5.90;;;4.10;;
48621;SDS011;34421;48.944;9.460;2022-08-18T06:39:45;7.65;;;5.18;;
48621;SDS011;34421;48.944;9.460;2022-08-18T06:42:17;6.40;;;4.82;;
48621;SDS011;34421;48.944;9.460;2022-08-18T06:44:46;7.20;;;4.55;;
48621;SDS011;34421;48.944;9.460;2022-08-18T06:47:34;6.28;;;4.50;;
48621;SDS011;34421;48.944;9.460;2022-08-18T06:50:09;6.25;;;4.18;;
48621;SDS011;34421;48.944;9.460;2022-08-18T06:52:52;6.13;;;3.97;;
48621;SDS011;34421;48.944;9.460;2022-08-18T06:58:19;5.38;;;3.70;;
48621;SDS011;34421;48.944;9.460;2022-08-18T07:03:18;5.60;;;3.83;;
48621;SDS011;34421;48.944;9.460;2022-08-18T07:06:07;4.97;;;3.80;;
48621;SDS011;34421;48.944;9.460;2022-08-18T07:08:35;5.45;;;3.70;;
48621;SDS011;34421;48.944;9.460;2022-08-18T07:11:18;6.88;;;4.72;;
48621;SDS011;34421;48.944;9.460;2022-08-18T07:13:51;5.70;;;4.10;;
48621;SDS011;34421;48.944;9.460;2022-08-18T07:16:29;5.32;;;3.97;;
48621;SDS011;34421;48.944;9.460;2022-08-18T07:19:05;6.55;;;4.57;;
48621;SDS011;34421;48.944;9.460;2022-08-18T07:21:33;6.03;;;4.07;;
48621;SDS011;34421;48.944;9.460;2022-08-18T07:24:04;6.47;;;4.72;;
48621;SDS011;34421;48.944;9.460;2022-08-18T07:26:31;6.57;;;4.13;;
48621;SDS011;34421;48.944;9.460;2022-08-18T07:36:54;6.70;;;4.32;;
48621;SDS011;34421;48.944;9.460;2022-08-18T07:39:28;5.38;;;3.88;;
48621;SDS011;34421;48.944;9.460;2022-08-18T07:42:16;6.10;;;4.00;;
48621;SDS011;34421;48.944;9.460;2022-08-18T07:44:58;5.95;;;4.18;;
48621;SDS011;34421;48.944;9.460;2022-08-18T07:50:22;5.43;;;3.92;;
48621;SDS011;34421;48.944;9.460;2022-08-18T07:55:32;6.60;;;4.03;;
48621;SDS011;34421;48.944;9.460;2022-08-18T07:58:05;5.53;;;3.90;;
48621;SDS011;34421;48.944;9.460;2022-08-18T08:11:24;6.00;;;4.22;;
48621;SDS011;34421;48.944;9.460;2022-08-18T08:14:11;4.70;;;3.50;;
48621;SDS011;34421;48.944;9.460;2022-08-18T08:19:23;5.28;;;3.10;;
48621;SDS011;34421;48.944;9.460;2022-08-18T08:22:28;4.40;;;2.92;;
48621;SDS011;34421;48.944;9.460;2022-08-18T08:25:17;4.53;;;2.88;;
48621;SDS011;34421;48.944;9.460;2022-08-18T08:33:49;4.13;;;2.80;;
48621;SDS011;34421;48.944;9.460;2022-08-18T08:36:24;4.07;;;2.60;;
48621;SDS011;34421;48.944;9.460;2022-08-18T08:38:55;4.28;;;3.03;;
48621;SDS011;34421;48.944;9.460;2022-08-18T08:44:31;3.70;;;2.67;;
48621;SDS011;34421;48.944;9.460;2022-08-18T08:47:03;5.05;;;2.70;;
48621;SDS011;34421;48.944;9.460;2022-08-18T08:49:38;5.43;;;3.30;;
48621;SDS011;34421;48.944;9.460;2022-08-18T08:54:53;4.28;;;3.10;;
48621;SDS011;34421;48.944;9.460;2022-08-18T08:57:20;6.07;;;3.92;;
48621;SDS011;34421;48.944;9.460;2022-08-18T08:59:49;5.10;;;3.45;;
48621;SDS011;34421;48.944;9.460;2022-08-18T09:05:07;5.50;;;3.30;;
48621;SDS011;34421;48.944;9.460;2022-08-18T09:18:34;4.43;;;2.70;;
48621;SDS011;34421;48.944;9.460;2022-08-18T09:23:40;5.22;;;3.38;;
48621;SDS011;34421;48.944;9.460;2022-08-18T09:28:56;5.40;;;3.20;;
48621;SDS011;34421;48.944;9.460;2022-08-18T09:31:29;4.85;;;3.60;;
48621;SDS011;34421;48.944;9.460;2022-08-18T09:39:36;4.85;;;3.22;;
48621;SDS011;34421;48.944;9.460;2022-08-18T09:42:33;4.78;;;3.00;;
48621;SDS011;34421;48.944;9.460;2022-08-18T09:45:07;4.97;;;3.55;;
48621;SDS011;34421;48.944;9.460;2022-08-18T09:52:51;6.20;;;4.05;;
48621;SDS011;34421;48.944;9.460;2022-08-18T09:57:42;6.63;;;3.77;;
48621;SDS011;34421;48.944;9.460;2022-08-18T10:18:39;6.90;;;4.28;;
48621;SDS011;34421;48.944;9.460;2022-08-18T10:29:02;6.78;;;4.53;;
48621;SDS011;34421;48.944;9.460;2022-08-18T10:34:36;6.25;;;4.13;;
48621;SDS011;34421;48.944;9.460;2022-08-18T10:37:13;5.30;;;3.95;;
48621;SDS011;34421;48.944;9.460;2022-08-18T10:39:45;5.65;;;4.30;;
48621;SDS011;34421;48.944;9.460;2022-08-18T10:42:19;5.43;;;4.15;;
48621;SDS011;34421;48.944;9.460;2022-08-18T10:44:47;6.68;;;4.93;;
48621;SDS011;34421;48.944;9.460;2022-08-18T10:47:25;6.80;;;4.05;;
48621;SDS011;34421;48.944;9.460;2022-08-18T10:49:54;4.68;;;3.20;;
48621;SDS011;34421;48.944;9.460;2022-08-18T10:52:32;7.00;;;4.15;;
48621;SDS011;34421;48.944;9.460;2022-08-18T10:57:53;5.32;;;3.60;;
48621;SDS011;34421;48.944;9.460;2022-08-18T11:00:48;5.63;;;3.28;;
48621;SDS011;34421;48.944;9.460;2022-08-18T11:06:06;4.50;;;3.20;;
48621;SDS011;34421;48.944;9.460;2022-08-18T11:08:34;5.93;;;4.18;;
48621;SDS011;34421;48.944;9.460;2022-08-18T11:11:08;5.72;;;4.07;;
48621;SDS011;34421;48.944;9.460;2022-08-18T11:16:35;4.00;;;2.90;;
48621;SDS011;34421;48.944;9.460;2022-08-18T11:19:23;4.72;;;3.30;;
48621;SDS011;34421;48.944;9.460;2022-08-18T11:21:50;4.78;;;3.38;;
48621;SDS011;34421;48.944;9.460;2022-08-18T11:24:26;4.10;;;2.75;;
48621;SDS011;34421;48.944;9.460;2022-08-18T11:26:54;4.78;;;2.95;;
48621;SDS011;34421;48.944;9.460;2022-08-18T11:34:52;5.85;;;2.88;;
48621;SDS011;34421;48.944;9.460;2022-08-18T11:42:58;5.28;;;3.08;;
48621;SDS011;34421;48.944;9.460;2022-08-18T11:45:26;4.47;;;3.00;;
48621;SDS011;34421;48.944;9.460;2022-08-18T11:53:33;4.07;;;3.10;;
48621;SDS011;34421;48.944;9.460;2022-08-18T11:58:45;4.95;;;3.05;;
48621;SDS011;34421;48.944;9.460;2022-08-18T12:01:33;4.65;;;3.15;;
48621;SDS011;34421;48.944;9.460;2022-08-18T12:06:37;4.95;;;3.25;;
48621;SDS011;34421;48.944;9.460;2022-08-18T12:09:38;3.78;;;2.80;;
48621;SDS011;34421;48.944;9.460;2022-08-18T12:12:15;4.68;;;3.33;;
48621;SDS011;34421;48.944;9.460;2022-08-18T12:14:59;6.00;;;3.13;;
48621;SDS011;34421;48.944;9.460;2022-08-18T12:17:28;4.38;;;3.03;;
48621;SDS011;34421;48.944;9.460;2022-08-18T12:19:55;4.40;;;3.10;;
48621;SDS011;34421;48.944;9.460;2022-08-18T12:22:24;4.85;;;3.35;;
48621;SDS011;34421;48.944;9.460;2022-08-18T12:24:57;4.95;;;3.25;;
48621;SDS011;34421;48.944;9.460;2022-08-18T12:27:23;4.93;;;3.17;;
48621;SDS011;34421;48.944;9.460;2022-08-18T12:29:50;4.55;;;3.30;;
48621;SDS011;34421;48.944;9.460;2022-08-18T12:32:17;4.85;;;3.60;;
48621;SDS011;34421;48.944;9.460;2022-08-18T12:34:44;4.03;;;2.97;;
48621;SDS011;34421;48.944;9.460;2022-08-18T12:37:11;4.68;;;3.28;;
48621;SDS011;34421;48.944;9.460;2022-08-18T12:39:41;5.20;;;3.35;;
48621;SDS011;34421;48.944;9.460;2022-08-18T12:42:07;4.45;;;3.08;;
48621;SDS011;34421;48.944;9.460;2022-08-18T12:44:32;4.60;;;3.42;;
48621;SDS011;34421;48.944;9.460;2022-08-18T12:46:59;4.55;;;3.03;;
48621;SDS011;34421;48.944;9.460;2022-08-18T12:49:26;5.00;;;3.40;;
48621;SDS011;34421;48.944;9.460;2022-08-18T12:51:52;4.18;;;3.13;;
48621;SDS011;34421;48.944;9.460;2022-08-18T12:54:19;5.40;;;3.30;;
48621;SDS011;34421;48.944;9.460;2022-08-18T12:56:45;5.72;;;3.58;;
48621;SDS011;34421;48.944;9.460;2022-08-18T12:59:14;4.40;;;2.95;;
48621;SDS011;34421;48.944;9.460;2022-08-18T13:01:39;5.15;;;2.92;;
48621;SDS011;34421;48.944;9.460;2022-08-18T13:04:05;4.40;;;3.00;;
48621;SDS011;34421;48.944;9.460;2022-08-18T13:06:34;5.15;;;3.08;;
48621;SDS011;34421;48.944;9.460;2022-08-18T13:09:02;4.07;;;2.80;;
48621;SDS011;34421;48.944;9.460;2022-08-18T13:11:28;4.78;;;3.65;;
48621;SDS011;34421;48.944;9.460;2022-08-18T13:13:53;4.03;;;2.90;;
48621;SDS011;34421;48.944;9.460;2022-08-18T13:16:20;4.15;;;2.80;;
48621;SDS011;34421;48.944;9.460;2022-08-18T13:18:45;5.40;;;3.00;;
48621;SDS011;34421;48.944;9.460;2022-08-18T13:21:13;5.18;;;3.15;;
48621;SDS011;34421;48.944;9.460;2022-08-18T13:23:40;4.60;;;3.17;;
48621;SDS011;34421;48.944;9.460;2022-08-18T13:26:07;4.68;;;3.20;;
48621;SDS011;34421;48.944;9.460;2022-08-18T13:28:36;4.47;;;3.25;;
48621;SDS011;34421;48.944;9.460;2022-08-18T13:31:03;3.28;;;2.42;;
48621;SDS011;34421;48.944;9.460;2022-08-18T13:33:28;6.30;;;2.97;;
48621;SDS011;34421;48.944;9.460;2022-08-18T13:35:55;4.82;;;3.03;;
48621;SDS011;34421;48.944;9.460;2022-08-18T13:38:21;5.40;;;2.85;;
48621;SDS011;34421;48.944;9.460;2022-08-18T13:40:49;3.88;;;2.67;;
48621;SDS011;34421;48.944;9.460;2022-08-18T13:43:19;4.63;;;3.17;;
48621;SDS011;34421;48.944;9.460;2022-08-18T13:45:50;3.88;;;2.88;;
48621;SDS011;34421;48.944;9.460;2022-08-18T13:48:16;4.22;;;2.63;;
48621;SDS011;34421;48.944;9.460;2022-08-18T13:50:42;4.05;;;2.75;;
48621;SDS011;34421;48.944;9.460;2022-08-18T13:53:13;4.20;;;2.60;;
48621;SDS011;34421;48.944;9.460;2022-08-18T13:55:45;4.32;;;2.75;;
48621;SDS011;34421;48.944;9.460;2022-08-18T13:58:11;4.25;;;2.63;;
48621;SDS011;34421;48.944;9.460;2022-08-18T14:00:37;3.97;;;2.40;;
48621;SDS011;34421;48.944;9.460;2022-08-18T14:03:03;3.78;;;2.30;;
48621;SDS011;34421;48.944;9.460;2022-08-18T14:05:30;3.60;;;2.58;;
48621;SDS011;34421;48.944;9.460;2022-08-18T14:07:56;3.75;;;2.60;;
48621;SDS011;34421;48.944;9.460;2022-08-18T14:10:22;5.22;;;3.05;;
48621;SDS011;34421;48.944;9.460;2022-08-18T14:12:49;4.15;;;2.95;;
48621;SDS011;34421;48.944;9.460;2022-08-18T14:15:18;4.38;;;2.67;;
48621;SDS011;34421;48.944;9.460;2022-08-18T14:17:43;3.55;;;2.47;;
48621;SDS011;34421;48.944;9.460;2022-08-18T14:20:09;3.95;;;2.72;;
48621;SDS011;34421;48.944;9.460;2022-08-18T14:22:54;4.10;;;2.70;;
48621;SDS011;34421;48.944;9.460;2022-08-18T14:25:40;4.03;;;2.80;;
48621;SDS011;34421;48.944;9.460;2022-08-18T14:28:24;3.83;;;2.50;;
48621;SDS011;34421;48.944;9.460;2022-08-18T14:30:49;3.05;;;2.20;;
48621;SDS011;34421;48.944;9.460;2022-08-18T14:33:16;3.88;;;2.35;;
48621;SDS011;34421;48.944;9.460;2022-08-18T14:35:43;4.47;;;2.70;;
48621;SDS011;34421;48.944;9.460;2022-08-18T14:38:09;4.30;;;2.83;;
48621;SDS011;34421;48.944;9.460;2022-08-18T14:40:34;4.35;;;2.67;;
48621;SDS011;34421;48.944;9.460;2022-08-18T14:43:00;4.22;;;2.53;;
48621;SDS011;34421;48.944;9.460;2022-08-18T14:45:28;3.15;;;2.17;;
48621;SDS011;34421;48.944;9.460;2022-08-18T14:47:54;4.68;;;2.30;;
48621;SDS011;34421;48.944;9.460;2022-08-18T14:50:20;4.05;;;2.45;;
48621;SDS011;34421;48.944;9.460;2022-08-18T14:52:47;3.70;;;2.40;;
48621;SDS011;34421;48.944;9.460;2022-08-18T14:55:12;3.10;;;2.25;;
48621;SDS011;34421;48.944;9.460;2022-08-18T14:57:39;3.58;;;2.33;;
48621;SDS011;34421;48.944;9.460;2022-08-18T15:00:08;3.35;;;2.22;;
48621;SDS011;34421;48.944;9.460;2022-08-18T15:02:37;3.80;;;2.42;;
48621;SDS011;34421;48.944;9.460;2022-08-18T15:05:04;3.15;;;2.10;;
48621;SDS011;34421;48.944;9.460;2022-08-18T15:07:31;2.95;;;2.20;;
48621;SDS011;34421;48.944;9.460;2022-08-18T15:09:56;3.03;;;2.00;;
48621;SDS011;34421;48.944;9.460;2022-08-18T15:12:22;3.20;;;2.17;;
48621;SDS011;34421;48.944;9.460;2022-08-18T15:14:49;3.75;;;2.13;;
48621;SDS011;34421;48.944;9.460;2022-08-18T15:17:14;3.53;;;2.33;;
48621;SDS011;34421;48.944;9.460;2022-08-18T15:19:40;4.25;;;2.85;;
48621;SDS011;34421;48.944;9.460;2022-08-18T15:22:07;3.80;;;2.60;;
48621;SDS011;34421;48.944;9.460;2022-08-18T15:24:52;3.25;;;2.50;;
48621;SDS011;34421;48.944;9.460;2022-08-18T15:27:36;3.78;;;2.88;;
48621;SDS011;34421;48.944;9.460;2022-08-18T15:30:04;4.78;;;2.83;;
48621;SDS011;34421;48.944;9.460;2022-08-18T15:32:41;3.70;;;2.50;;
48621;SDS011;34421;48.944;9.460;2022-08-18T15:35:07;3.70;;;2.38;;
48621;SDS011;34421;48.944;9.460;2022-08-18T15:37:34;3.45;;;2.40;;
48621;SDS011;34421;48.944;9.460;2022-08-18T15:40:06;3.50;;;2.58;;
48621;SDS011;34421;48.944;9.460;2022-08-18T15:42:35;5.70;;;3.03;;
48621;SDS011;34421;48.944;9.460;2022-08-18T15:45:01;4.22;;;2.67;;
48621;SDS011;34421;48.944;9.460;2022-08-18T15:47:28;3.65;;;2.22;;
48621;SDS011;34421;48.944;9.460;2022-08-18T15:49:57;3.10;;;1.98;;
48621;SDS011;34421;48.944;9.460;2022-08-18T15:52:22;4.53;;;2.85;;
48621;SDS011;34421;48.944;9.460;2022-08-18T15:54:49;4.85;;;3.20;;
48621;SDS011;34421;48.944;9.460;2022-08-18T15:57:14;3.95;;;2.40;;
48621;SDS011;34421;48.944;9.460;2022-08-18T15:59:40;4.03;;;2.88;;
48621;SDS011;34421;48.944;9.460;2022-08-18T16:02:06;3.85;;;2.50;;
48621;SDS011;34421;48.944;9.460;2022-08-18T16:04:33;3.97;;;2.70;;
48621;SDS011;34421;48.944;9.460;2022-08-18T16:07:02;3.58;;;2.50;;
48621;SDS011;34421;48.944;9.460;2022-08-18T16:09:28;4.70;;;2.88;;
48621;SDS011;34421;48.944;9.460;2022-08-18T16:11:54;4.43;;;2.85;;
48621;SDS011;34421;48.944;9.460;2022-08-18T16:14:19;3.80;;;2.72;;
48621;SDS011;34421;48.944;9.460;2022-08-18T16:16:44;3.35;;;2.50;;
48621;SDS011;34421;48.944;9.460;2022-08-18T16:19:10;4.32;;;3.10;;
48621;SDS011;34421;48.944;9.460;2022-08-18T16:21:35;4.60;;;3.00;;
48621;SDS011;34421;48.944;9.460;2022-08-18T16:24:03;3.75;;;2.58;;
48621;SDS011;34421;48.944;9.460;2022-08-18T16:26:29;3.38;;;2.45;;
48621;SDS011;34421;48.944;9.460;2022-08-18T16:28:55;3.75;;;2.80;;
48621;SDS011;34421;48.944;9.460;2022-08-18T16:31:20;3.45;;;2.40;;
48621;SDS011;34421;48.944;9.460;2022-08-18T16:33:52;4.05;;;2.60;;
48621;SDS011;34421;48.944;9.460;2022-08-18T16:36:22;4.47;;;3.10;;
48621;SDS011;34421;48.944;9.460;2022-08-18T16:38:50;5.40;;;2.83;;
48621;SDS011;34421;48.944;9.460;2022-08-18T16:41:17;3.60;;;2.70;;
48621;SDS011;34421;48.944;9.460;2022-08-18T16:43:44;4.93;;;3.25;;
48621;SDS011;34421;48.944;9.460;2022-08-18T16:46:12;3.53;;;2.65;;
48621;SDS011;34421;48.944;9.460;2022-08-18T16:48:40;5.05;;;2.75;;
48621;SDS011;34421;48.944;9.460;2022-08-18T16:51:05;4.63;;;2.85;;
48621;SDS011;34421;48.944;9.460;2022-08-18T16:53:30;5.03;;;3.35;;
48621;SDS011;34421;48.944;9.460;2022-08-18T16:55:56;4.10;;;3.20;;
48621;SDS011;34421;48.944;9.460;2022-08-18T16:58:21;4.00;;;2.90;;
48621;SDS011;34421;48.944;9.460;2022-08-18T17:01:05;3.45;;;2.72;;
48621;SDS011;34421;48.944;9.460;2022-08-18T17:03:49;5.05;;;3.20;;
48621;SDS011;34421;48.944;9.460;2022-08-18T17:11:26;4.57;;;3.00;;
48621;SDS011;34421;48.944;9.460;2022-08-18T17:13:53;4.00;;;2.78;;
48621;SDS011;34421;48.944;9.460;2022-08-18T17:16:21;4.40;;;2.85;;
48621;SDS011;34421;48.944;9.460;2022-08-18T17:18:48;4.15;;;2.88;;
48621;SDS011;34421;48.944;9.460;2022-08-18T17:21:15;4.25;;;2.95;;
48621;SDS011;34421;48.944;9.460;2022-08-18T17:23:43;4.05;;;2.80;;
48621;SDS011;34421;48.944;9.460;2022-08-18T17:28:57;4.35;;;2.60;;
48621;SDS011;34421;48.944;9.460;2022-08-18T17:31:29;4.35;;;2.80;;
48621;SDS011;34421;48.944;9.460;2022-08-18T17:33:56;3.88;;;2.70;;
48621;SDS011;34421;48.944;9.460;2022-08-18T17:36:34;4.15;;;2.97;;
48621;SDS011;34421;48.944;9.460;2022-08-18T17:39:04;3.97;;;2.22;;
48621;SDS011;34421;48.944;9.460;2022-08-18T17:41:32;3.70;;;2.80;;
48621;SDS011;34421;48.944;9.460;2022-08-18T17:44:18;4.80;;;2.90;;
48621;SDS011;34421;48.944;9.460;2022-08-18T17:46:44;4.00;;;2.80;;
48621;SDS011;34421;48.944;9.460;2022-08-18T17:52:15;4.28;;;2.88;;
48621;SDS011;34421;48.944;9.460;2022-08-18T17:54:41;4.07;;;3.03;;
48621;SDS011;34421;48.944;9.460;2022-08-18T17:57:14;5.05;;;3.28;;
48621;SDS011;34421;48.944;9.460;2022-08-18T17:59:49;5.82;;;3.50;;
48621;SDS011;34421;48.944;9.460;2022-08-18T18:02:23;4.32;;;3.20;;
48621;SDS011;34421;48.944;9.460;2022-08-18T18:04:50;4.70;;;3.25;;
48621;SDS011;34421;48.944;9.460;2022-08-18T18:07:20;5.18;;;3.33;;